Butler, Illinois
Current Conditions -  °F | °C
As of 8:15 PM on Thursday 18 Dec 2014 (Local Time) from K3LF Reporting Station
Overcast Overcast  
Wind Chill: 29°   Ceiling: 3700
Heat Index: 29°   Visibility: 7mi
Dew Point: 25°   Wind: 3mph
Humidity: 83%   Direction: 30°NNE
Pressure: 30.27"   Gusts: NA
Location:  39.2°N, 89.53°W
Report Text: K3LF 190215Z AUTO 03003KT 7SM BKN037 OVC047 M01/M04 A3027 RMK AO2 T10151041
Loading
Personal Weather Stations






























Interactive Weather Map New forecast layout! Learn more

10-Day Weather Forecast

Advertisements
Track Severe Weather on mobile